sensor_id;sensor_type;location;lat;lon;timestamp;temperature;humidity
73360;DHT22;63092;43.582;19.528;2022-11-25T00:01:09;8.10;99.90
73360;DHT22;63092;43.582;19.528;2022-11-25T00:03:36;8.10;99.90
73360;DHT22;63092;43.582;19.528;2022-11-25T00:06:13;8.10;99.90
73360;DHT22;63092;43.582;19.528;2022-11-25T00:08:40;8.20;99.90
73360;DHT22;63092;43.582;19.528;2022-11-25T00:11:07;8.10;99.90
73360;DHT22;63092;43.582;19.528;2022-11-25T00:13:33;8.20;99.90
73360;DHT22;63092;43.582;19.528;2022-11-25T00:16:04;8.20;99.90
73360;DHT22;63092;43.582;19.528;2022-11-25T00:18:30;8.20;99.90
73360;DHT22;63092;43.582;19.528;2022-11-25T00:20:57;8.20;99.90
73360;DHT22;63092;43.582;19.528;2022-11-25T00:23:23;8.20;99.90
73360;DHT22;63092;43.582;19.528;2022-11-25T00:25:48;8.20;99.90
73360;DHT22;63092;43.582;19.528;2022-11-25T00:28:14;8.20;99.90
73360;DHT22;63092;43.582;19.528;2022-11-25T00:30:41;8.10;99.90
73360;DHT22;63092;43.582;19.528;2022-11-25T00:33:07;8.20;99.90
73360;DHT22;63092;43.582;19.528;2022-11-25T00:35:34;8.10;99.90
73360;DHT22;63092;43.582;19.528;2022-11-25T00:38:00;8.00;99.90
73360;DHT22;63092;43.582;19.528;2022-11-25T00:40:25;8.00;99.90
73360;DHT22;63092;43.582;19.528;2022-11-25T00:42:51;8.00;99.90
73360;DHT22;63092;43.582;19.528;2022-11-25T00:45:35;7.90;99.90
73360;DHT22;63092;43.582;19.528;2022-11-25T00:48:01;7.90;99.90
73360;DHT22;63092;43.582;19.528;2022-11-25T00:50:27;7.90;99.90
73360;DHT22;63092;43.582;19.528;2022-11-25T00:52:52;7.90;99.90
73360;DHT22;63092;43.582;19.528;2022-11-25T00:55:18;7.90;99.90
73360;DHT22;63092;43.582;19.528;2022-11-25T00:57:44;7.90;99.90
73360;DHT22;63092;43.582;19.528;2022-11-25T01:00:10;7.80;99.90
73360;DHT22;63092;43.582;19.528;2022-11-25T01:02:36;7.90;99.90
73360;DHT22;63092;43.582;19.528;2022-11-25T01:05:02;7.80;99.90
73360;DHT22;63092;43.582;19.528;2022-11-25T01:10:31;7.80;99.90
73360;DHT22;63092;43.582;19.528;2022-11-25T01:12:56;7.80;99.90
73360;DHT22;63092;43.582;19.528;2022-11-25T01:15:22;7.70;99.90
73360;DHT22;63092;43.582;19.528;2022-11-25T01:17:48;7.60;99.90
73360;DHT22;63092;43.582;19.528;2022-11-25T01:20:15;7.60;99.90
73360;DHT22;63092;43.582;19.528;2022-11-25T01:22:41;7.50;99.90
73360;DHT22;63092;43.582;19.528;2022-11-25T01:25:07;7.50;99.90
73360;DHT22;63092;43.582;19.528;2022-11-25T01:27:35;7.40;99.90
73360;DHT22;63092;43.582;19.528;2022-11-25T01:30:05;7.40;99.90
73360;DHT22;63092;43.582;19.528;2022-11-25T01:32:31;7.40;99.90
73360;DHT22;63092;43.582;19.528;2022-11-25T01:34:57;7.40;99.90
73360;DHT22;63092;43.582;19.528;2022-11-25T01:37:23;7.40;99.90
73360;DHT22;63092;43.582;19.528;2022-11-25T01:39:48;7.40;99.90
73360;DHT22;63092;43.582;19.528;2022-11-25T01:42:14;7.40;99.90
73360;DHT22;63092;43.582;19.528;2022-11-25T01:44:41;7.40;99.90
73360;DHT22;63092;43.582;19.528;2022-11-25T01:47:20;7.30;99.90
73360;DHT22;63092;43.582;19.528;2022-11-25T01:50:01;7.10;99.90
73360;DHT22;63092;43.582;19.528;2022-11-25T01:52:31;7.00;99.90
73360;DHT22;63092;43.582;19.528;2022-11-25T01:55:04;7.00;99.90
73360;DHT22;63092;43.582;19.528;2022-11-25T01:57:38;7.00;99.90
73360;DHT22;63092;43.582;19.528;2022-11-25T02:00:06;7.10;99.90
73360;DHT22;63092;43.582;19.528;2022-11-25T02:02:32;7.20;99.90
73360;DHT22;63092;43.582;19.528;2022-11-25T02:05:02;7.20;99.90
73360;DHT22;63092;43.582;19.528;2022-11-25T02:07:40;7.10;99.90
73360;DHT22;63092;43.582;19.528;2022-11-25T02:10:11;7.10;99.90
73360;DHT22;63092;43.582;19.528;2022-11-25T02:12:40;7.20;99.90
73360;DHT22;63092;43.582;19.528;2022-11-25T02:15:08;7.30;99.90
73360;DHT22;63092;43.582;19.528;2022-11-25T02:17:34;7.30;99.90
73360;DHT22;63092;43.582;19.528;2022-11-25T02:20:09;7.30;99.90
73360;DHT22;63092;43.582;19.528;2022-11-25T02:25:23;7.40;99.90
73360;DHT22;63092;43.582;19.528;2022-11-25T02:27:54;7.40;99.90
73360;DHT22;63092;43.582;19.528;2022-11-25T02:30:20;7.50;99.90
73360;DHT22;63092;43.582;19.528;2022-11-25T02:32:47;7.50;99.90
73360;DHT22;63092;43.582;19.528;2022-11-25T02:35:25;7.50;99.90
73360;DHT22;63092;43.582;19.528;2022-11-25T02:37:53;7.50;99.90
73360;DHT22;63092;43.582;19.528;2022-11-25T02:40:20;7.60;99.80
73360;DHT22;63092;43.582;19.528;2022-11-25T02:42:48;7.60;99.80
73360;DHT22;63092;43.582;19.528;2022-11-25T02:45:16;7.50;99.90
73360;DHT22;63092;43.582;19.528;2022-11-25T02:47:46;7.50;99.90
73360;DHT22;63092;43.582;19.528;2022-11-25T02:50:11;7.50;99.90
73360;DHT22;63092;43.582;19.528;2022-11-25T02:52:38;7.50;99.90
73360;DHT22;63092;43.582;19.528;2022-11-25T02:55:04;7.60;99.90
73360;DHT22;63092;43.582;19.528;2022-11-25T02:57:30;7.60;99.90
73360;DHT22;63092;43.582;19.528;2022-11-25T02:59:56;7.60;99.90
73360;DHT22;63092;43.582;19.528;2022-11-25T03:02:21;7.60;99.90
73360;DHT22;63092;43.582;19.528;2022-11-25T03:04:47;7.60;99.90
73360;DHT22;63092;43.582;19.528;2022-11-25T03:07:13;7.60;99.90
73360;DHT22;63092;43.582;19.528;2022-11-25T03:09:38;7.60;99.90
73360;DHT22;63092;43.582;19.528;2022-11-25T03:12:04;7.50;99.90
73360;DHT22;63092;43.582;19.528;2022-11-25T03:14:45;7.60;99.90
73360;DHT22;63092;43.582;19.528;2022-11-25T03:17:12;7.50;99.90
73360;DHT22;63092;43.582;19.528;2022-11-25T03:19:38;7.50;99.90
73360;DHT22;63092;43.582;19.528;2022-11-25T03:22:03;7.60;99.90
73360;DHT22;63092;43.582;19.528;2022-11-25T03:24:29;7.50;99.90
73360;DHT22;63092;43.582;19.528;2022-11-25T03:26:55;7.50;99.90
73360;DHT22;63092;43.582;19.528;2022-11-25T03:29:21;7.50;99.90
73360;DHT22;63092;43.582;19.528;2022-11-25T03:31:46;7.50;99.90
73360;DHT22;63092;43.582;19.528;2022-11-25T03:34:12;7.50;99.90
73360;DHT22;63092;43.582;19.528;2022-11-25T03:36:38;7.60;99.90
73360;DHT22;63092;43.582;19.528;2022-11-25T03:39:04;7.60;99.90
73360;DHT22;63092;43.582;19.528;2022-11-25T03:41:29;7.50;99.90
73360;DHT22;63092;43.582;19.528;2022-11-25T03:43:55;7.50;99.90
73360;DHT22;63092;43.582;19.528;2022-11-25T03:46:21;7.60;99.90
73360;DHT22;63092;43.582;19.528;2022-11-25T03:48:47;7.60;99.90
73360;DHT22;63092;43.582;19.528;2022-11-25T03:51:12;7.60;99.90
73360;DHT22;63092;43.582;19.528;2022-11-25T03:53:38;7.60;99.90
73360;DHT22;63092;43.582;19.528;2022-11-25T03:56:04;7.50;99.90
73360;DHT22;63092;43.582;19.528;2022-11-25T03:58:30;7.40;99.90
73360;DHT22;63092;43.582;19.528;2022-11-25T04:00:59;7.40;99.90
73360;DHT22;63092;43.582;19.528;2022-11-25T04:03:25;7.50;99.90
73360;DHT22;63092;43.582;19.528;2022-11-25T04:05:51;7.50;99.90
73360;DHT22;63092;43.582;19.528;2022-11-25T04:08:17;7.50;99.90
73360;DHT22;63092;43.582;19.528;2022-11-25T04:10:42;7.40;99.90
73360;DHT22;63092;43.582;19.528;2022-11-25T04:13:08;7.40;99.90
73360;DHT22;63092;43.582;19.528;2022-11-25T04:15:34;7.50;99.90
73360;DHT22;63092;43.582;19.528;2022-11-25T04:18:00;7.40;99.90
73360;DHT22;63092;43.582;19.528;2022-11-25T04:20:25;7.40;99.90
73360;DHT22;63092;43.582;19.528;2022-11-25T04:22:51;7.40;99.90
73360;DHT22;63092;43.582;19.528;2022-11-25T04:25:17;7.40;99.90
73360;DHT22;63092;43.582;19.528;2022-11-25T04:27:43;7.40;99.90
73360;DHT22;63092;43.582;19.528;2022-11-25T04:30:09;7.30;99.90
73360;DHT22;63092;43.582;19.528;2022-11-25T04:32:36;7.30;99.90
73360;DHT22;63092;43.582;19.528;2022-11-25T04:35:03;7.30;99.90
73360;DHT22;63092;43.582;19.528;2022-11-25T04:37:29;7.30;99.90
73360;DHT22;63092;43.582;19.528;2022-11-25T04:39:54;7.30;99.90
73360;DHT22;63092;43.582;19.528;2022-11-25T04:42:20;7.40;99.90
73360;DHT22;63092;43.582;19.528;2022-11-25T04:45:00;7.40;99.90
73360;DHT22;63092;43.582;19.528;2022-11-25T04:47:27;7.40;99.90
73360;DHT22;63092;43.582;19.528;2022-11-25T04:49:54;7.40;99.90
73360;DHT22;63092;43.582;19.528;2022-11-25T04:52:19;7.40;99.90
73360;DHT22;63092;43.582;19.528;2022-11-25T04:54:45;7.40;99.90
73360;DHT22;63092;43.582;19.528;2022-11-25T04:57:14;7.30;99.90
73360;DHT22;63092;43.582;19.528;2022-11-25T04:59:41;7.20;99.90
73360;DHT22;63092;43.582;19.528;2022-11-25T05:02:22;7.20;99.90
73360;DHT22;63092;43.582;19.528;2022-11-25T05:04:51;7.20;99.90
73360;DHT22;63092;43.582;19.528;2022-11-25T05:07:18;7.20;99.90
73360;DHT22;63092;43.582;19.528;2022-11-25T05:09:44;7.20;99.90
73360;DHT22;63092;43.582;19.528;2022-11-25T05:12:13;7.20;99.90
73360;DHT22;63092;43.582;19.528;2022-11-25T05:14:39;7.10;99.90
73360;DHT22;63092;43.582;19.528;2022-11-25T05:17:06;7.10;99.90
73360;DHT22;63092;43.582;19.528;2022-11-25T05:19:32;7.00;99.90
73360;DHT22;63092;43.582;19.528;2022-11-25T05:22:00;7.00;99.90
73360;DHT22;63092;43.582;19.528;2022-11-25T05:24:26;7.00;99.90
73360;DHT22;63092;43.582;19.528;2022-11-25T05:26:52;7.00;99.90
73360;DHT22;63092;43.582;19.528;2022-11-25T05:29:18;6.90;99.90
73360;DHT22;63092;43.582;19.528;2022-11-25T05:31:43;6.90;99.90
73360;DHT22;63092;43.582;19.528;2022-11-25T05:34:09;6.90;99.90
73360;DHT22;63092;43.582;19.528;2022-11-25T05:36:35;6.90;99.90
73360;DHT22;63092;43.582;19.528;2022-11-25T05:39:02;6.80;99.90
73360;DHT22;63092;43.582;19.528;2022-11-25T05:41:27;6.90;99.90
73360;DHT22;63092;43.582;19.528;2022-11-25T05:43:53;6.80;99.90
73360;DHT22;63092;43.582;19.528;2022-11-25T05:46:19;6.90;99.90
73360;DHT22;63092;43.582;19.528;2022-11-25T05:48:45;6.90;99.90
73360;DHT22;63092;43.582;19.528;2022-11-25T05:51:11;7.00;99.90
73360;DHT22;63092;43.582;19.528;2022-11-25T05:53:36;7.00;99.90
73360;DHT22;63092;43.582;19.528;2022-11-25T05:56:04;7.10;99.90
73360;DHT22;63092;43.582;19.528;2022-11-25T05:58:31;7.10;99.90
73360;DHT22;63092;43.582;19.528;2022-11-25T06:00:57;7.10;99.90
73360;DHT22;63092;43.582;19.528;2022-11-25T06:03:24;7.10;99.90
73360;DHT22;63092;43.582;19.528;2022-11-25T06:05:50;7.00;99.90
73360;DHT22;63092;43.582;19.528;2022-11-25T06:08:16;7.00;99.90
73360;DHT22;63092;43.582;19.528;2022-11-25T06:10:41;7.00;99.90
73360;DHT22;63092;43.582;19.528;2022-11-25T06:13:08;7.10;99.90
73360;DHT22;63092;43.582;19.528;2022-11-25T06:15:38;7.10;99.90
73360;DHT22;63092;43.582;19.528;2022-11-25T06:18:04;7.10;99.90
73360;DHT22;63092;43.582;19.528;2022-11-25T06:20:30;7.20;99.90
73360;DHT22;63092;43.582;19.528;2022-11-25T06:22:57;7.20;99.90
73360;DHT22;63092;43.582;19.528;2022-11-25T06:25:23;7.20;99.90
73360;DHT22;63092;43.582;19.528;2022-11-25T06:27:49;7.20;99.90
73360;DHT22;63092;43.582;19.528;2022-11-25T06:30:15;7.30;99.90
73360;DHT22;63092;43.582;19.528;2022-11-25T06:32:41;7.30;99.90
73360;DHT22;63092;43.582;19.528;2022-11-25T06:35:07;7.30;99.90
73360;DHT22;63092;43.582;19.528;2022-11-25T06:37:33;7.40;99.90
73360;DHT22;63092;43.582;19.528;2022-11-25T06:39:59;7.40;99.90
73360;DHT22;63092;43.582;19.528;2022-11-25T06:42:24;7.30;99.90
73360;DHT22;63092;43.582;19.528;2022-11-25T06:44:50;7.40;99.90
73360;DHT22;63092;43.582;19.528;2022-11-25T06:47:16;7.40;99.90
73360;DHT22;63092;43.582;19.528;2022-11-25T06:49:41;7.30;99.90
73360;DHT22;63092;43.582;19.528;2022-11-25T06:52:07;7.40;99.90
73360;DHT22;63092;43.582;19.528;2022-11-25T06:54:33;7.40;99.90
73360;DHT22;63092;43.582;19.528;2022-11-25T06:56:59;7.50;99.90
73360;DHT22;63092;43.582;19.528;2022-11-25T06:59:24;7.50;99.90
73360;DHT22;63092;43.582;19.528;2022-11-25T07:01:50;7.60;99.90
73360;DHT22;63092;43.582;19.528;2022-11-25T07:04:16;7.50;99.90
73360;DHT22;63092;43.582;19.528;2022-11-25T07:06:42;7.50;99.90
73360;DHT22;63092;43.582;19.528;2022-11-25T07:09:08;7.50;99.90
73360;DHT22;63092;43.582;19.528;2022-11-25T07:11:36;7.50;99.90
73360;DHT22;63092;43.582;19.528;2022-11-25T07:14:09;7.50;99.90
73360;DHT22;63092;43.582;19.528;2022-11-25T07:16:38;7.50;99.90
73360;DHT22;63092;43.582;19.528;2022-11-25T07:19:04;7.50;99.90
73360;DHT22;63092;43.582;19.528;2022-11-25T07:21:31;7.60;99.90
73360;DHT22;63092;43.582;19.528;2022-11-25T07:23:59;7.70;99.90
73360;DHT22;63092;43.582;19.528;2022-11-25T07:26:27;8.00;99.90
73360;DHT22;63092;43.582;19.528;2022-11-25T07:28:56;8.10;99.40
73360;DHT22;63092;43.582;19.528;2022-11-25T07:31:29;8.30;99.10
73360;DHT22;63092;43.582;19.528;2022-11-25T07:33:57;8.40;98.90
73360;DHT22;63092;43.582;19.528;2022-11-25T07:36:24;8.60;98.40
73360;DHT22;63092;43.582;19.528;2022-11-25T07:38:49;8.60;98.10
73360;DHT22;63092;43.582;19.528;2022-11-25T07:41:18;8.60;98.00
73360;DHT22;63092;43.582;19.528;2022-11-25T07:44:10;8.50;98.50
73360;DHT22;63092;43.582;19.528;2022-11-25T07:46:36;8.40;98.40
73360;DHT22;63092;43.582;19.528;2022-11-25T07:49:06;8.50;98.50
73360;DHT22;63092;43.582;19.528;2022-11-25T07:53:59;8.40;98.80
73360;DHT22;63092;43.582;19.528;2022-11-25T07:56:26;8.10;99.10
73360;DHT22;63092;43.582;19.528;2022-11-25T07:58:53;8.20;99.20
73360;DHT22;63092;43.582;19.528;2022-11-25T08:01:19;8.20;99.00
73360;DHT22;63092;43.582;19.528;2022-11-25T08:03:47;8.40;98.70
73360;DHT22;63092;43.582;19.528;2022-11-25T08:06:16;8.40;98.80
73360;DHT22;63092;43.582;19.528;2022-11-25T08:08:43;8.60;98.50
73360;DHT22;63092;43.582;19.528;2022-11-25T08:11:14;8.60;98.00
73360;DHT22;63092;43.582;19.528;2022-11-25T08:13:40;8.50;98.00
73360;DHT22;63092;43.582;19.528;2022-11-25T08:16:06;8.70;97.80
73360;DHT22;63092;43.582;19.528;2022-11-25T08:18:33;8.90;97.00
73360;DHT22;63092;43.582;19.528;2022-11-25T08:21:00;9.00;97.20
73360;DHT22;63092;43.582;19.528;2022-11-25T08:23:27;9.20;96.20
73360;DHT22;63092;43.582;19.528;2022-11-25T08:25:52;9.30;95.40
73360;DHT22;63092;43.582;19.528;2022-11-25T08:28:18;9.50;94.90
73360;DHT22;63092;43.582;19.528;2022-11-25T08:30:44;9.60;94.40
73360;DHT22;63092;43.582;19.528;2022-11-25T08:33:10;9.90;94.10
73360;DHT22;63092;43.582;19.528;2022-11-25T08:35:35;10.00;94.40
73360;DHT22;63092;43.582;19.528;2022-11-25T08:38:06;9.90;93.60
73360;DHT22;63092;43.582;19.528;2022-11-25T08:40:35;10.00;93.80
73360;DHT22;63092;43.582;19.528;2022-11-25T08:43:01;10.20;93.70
73360;DHT22;63092;43.582;19.528;2022-11-25T08:45:27;10.10;93.70
73360;DHT22;63092;43.582;19.528;2022-11-25T08:47:53;10.30;93.20
73360;DHT22;63092;43.582;19.528;2022-11-25T08:50:19;10.40;92.50
73360;DHT22;63092;43.582;19.528;2022-11-25T08:52:45;10.50;91.90
73360;DHT22;63092;43.582;19.528;2022-11-25T08:55:11;10.40;92.30
73360;DHT22;63092;43.582;19.528;2022-11-25T08:57:37;10.50;92.00
73360;DHT22;63092;43.582;19.528;2022-11-25T09:00:04;10.70;90.30
73360;DHT22;63092;43.582;19.528;2022-11-25T09:02:32;10.90;89.20
73360;DHT22;63092;43.582;19.528;2022-11-25T09:04:58;10.90;90.20
73360;DHT22;63092;43.582;19.528;2022-11-25T09:07:24;10.60;89.60
73360;DHT22;63092;43.582;19.528;2022-11-25T09:09:49;10.50;90.70
73360;DHT22;63092;43.582;19.528;2022-11-25T09:12:15;10.60;89.80
73360;DHT22;63092;43.582;19.528;2022-11-25T09:14:41;10.80;90.00
73360;DHT22;63092;43.582;19.528;2022-11-25T09:17:08;10.60;86.90
73360;DHT22;63092;43.582;19.528;2022-11-25T09:19:34;10.40;86.20
73360;DHT22;63092;43.582;19.528;2022-11-25T09:22:00;10.40;86.20
73360;DHT22;63092;43.582;19.528;2022-11-25T09:24:26;10.20;87.70
73360;DHT22;63092;43.582;19.528;2022-11-25T09:26:52;10.10;85.00
73360;DHT22;63092;43.582;19.528;2022-11-25T09:29:19;10.20;86.90
73360;DHT22;63092;43.582;19.528;2022-11-25T09:31:45;10.30;90.50
73360;DHT22;63092;43.582;19.528;2022-11-25T09:34:11;10.70;90.50
73360;DHT22;63092;43.582;19.528;2022-11-25T09:36:37;10.90;88.60
73360;DHT22;63092;43.582;19.528;2022-11-25T09:39:03;11.10;88.70
73360;DHT22;63092;43.582;19.528;2022-11-25T09:50:47;11.70;82.50
73360;DHT22;63092;43.582;19.528;2022-11-25T09:56:17;11.70;73.70
73360;DHT22;63092;43.582;19.528;2022-11-25T09:58:49;11.60;80.30
73360;DHT22;63092;43.582;19.528;2022-11-25T10:01:20;11.40;74.10
73360;DHT22;63092;43.582;19.528;2022-11-25T10:06:23;11.70;72.80
73360;DHT22;63092;43.582;19.528;2022-11-25T10:09:01;11.80;73.20
73360;DHT22;63092;43.582;19.528;2022-11-25T10:17:13;11.80;73.30
73360;DHT22;63092;43.582;19.528;2022-11-25T10:20:04;11.70;71.90
73360;DHT22;63092;43.582;19.528;2022-11-25T10:22:36;11.50;73.60
73360;DHT22;63092;43.582;19.528;2022-11-25T10:28:02;11.10;75.90
73360;DHT22;63092;43.582;19.528;2022-11-25T10:30:49;11.00;77.40
73360;DHT22;63092;43.582;19.528;2022-11-25T10:33:27;10.90;79.00
73360;DHT22;63092;43.582;19.528;2022-11-25T10:41:17;10.70;81.00
73360;DHT22;63092;43.582;19.528;2022-11-25T10:43:45;10.80;82.20
73360;DHT22;63092;43.582;19.528;2022-11-25T10:46:42;11.00;81.10
73360;DHT22;63092;43.582;19.528;2022-11-25T10:49:13;11.20;78.60
73360;DHT22;63092;43.582;19.528;2022-11-25T10:51:46;11.40;77.10
73360;DHT22;63092;43.582;19.528;2022-11-25T10:54:19;11.50;75.40
73360;DHT22;63092;43.582;19.528;2022-11-25T10:56:51;11.70;74.50
73360;DHT22;63092;43.582;19.528;2022-11-25T10:59:24;11.80;72.90
73360;DHT22;63092;43.582;19.528;2022-11-25T11:04:57;12.20;71.90
73360;DHT22;63092;43.582;19.528;2022-11-25T11:07:28;12.30;69.70
73360;DHT22;63092;43.582;19.528;2022-11-25T11:10:17;12.40;69.30
73360;DHT22;63092;43.582;19.528;2022-11-25T11:13:04;12.40;66.20
73360;DHT22;63092;43.582;19.528;2022-11-25T11:15:48;12.40;67.80
73360;DHT22;63092;43.582;19.528;2022-11-25T11:18:19;12.60;68.20
73360;DHT22;63092;43.582;19.528;2022-11-25T11:20:48;12.70;67.10
73360;DHT22;63092;43.582;19.528;2022-11-25T11:23:15;12.70;63.70
73360;DHT22;63092;43.582;19.528;2022-11-25T11:25:43;12.90;67.20
73360;DHT22;63092;43.582;19.528;2022-11-25T11:30:57;13.00;68.90
73360;DHT22;63092;43.582;19.528;2022-11-25T11:33:40;13.20;65.30
73360;DHT22;63092;43.582;19.528;2022-11-25T11:38:55;13.30;65.10
73360;DHT22;63092;43.582;19.528;2022-11-25T11:41:39;13.30;66.20
73360;DHT22;63092;43.582;19.528;2022-11-25T12:03:43;13.30;62.60
73360;DHT22;63092;43.582;19.528;2022-11-25T12:06:12;13.40;63.10
73360;DHT22;63092;43.582;19.528;2022-11-25T12:08:52;13.20;64.40
73360;DHT22;63092;43.582;19.528;2022-11-25T12:11:25;13.30;63.30
73360;DHT22;63092;43.582;19.528;2022-11-25T12:13:54;13.40;66.10
73360;DHT22;63092;43.582;19.528;2022-11-25T12:16:29;13.30;66.30
73360;DHT22;63092;43.582;19.528;2022-11-25T12:19:09;13.30;63.50
73360;DHT22;63092;43.582;19.528;2022-11-25T12:27:36;13.30;65.90
73360;DHT22;63092;43.582;19.528;2022-11-25T12:30:14;13.30;64.90
73360;DHT22;63092;43.582;19.528;2022-11-25T12:33:10;13.40;65.70
73360;DHT22;63092;43.582;19.528;2022-11-25T12:38:29;13.50;66.70
73360;DHT22;63092;43.582;19.528;2022-11-25T12:46:09;13.60;66.40
73360;DHT22;63092;43.582;19.528;2022-11-25T12:48:39;13.50;64.60
73360;DHT22;63092;43.582;19.528;2022-11-25T13:02:41;12.70;67.70
73360;DHT22;63092;43.582;19.528;2022-11-25T13:11:03;12.30;71.40
73360;DHT22;63092;43.582;19.528;2022-11-25T13:16:27;12.20;70.70
73360;DHT22;63092;43.582;19.528;2022-11-25T13:18:54;12.10;71.30
73360;DHT22;63092;43.582;19.528;2022-11-25T13:21:21;12.10;73.40
73360;DHT22;63092;43.582;19.528;2022-11-25T13:23:56;12.00;72.50
73360;DHT22;63092;43.582;19.528;2022-11-25T13:32:03;11.70;74.80
73360;DHT22;63092;43.582;19.528;2022-11-25T13:34:30;11.60;73.60
73360;DHT22;63092;43.582;19.528;2022-11-25T13:36:58;11.50;74.10
73360;DHT22;63092;43.582;19.528;2022-11-25T13:39:32;11.50;75.50
73360;DHT22;63092;43.582;19.528;2022-11-25T13:42:23;11.40;76.70
73360;DHT22;63092;43.582;19.528;2022-11-25T13:44:50;11.40;77.30
73360;DHT22;63092;43.582;19.528;2022-11-25T13:47:38;11.40;77.00
73360;DHT22;63092;43.582;19.528;2022-11-25T13:50:22;11.30;78.10
73360;DHT22;63092;43.582;19.528;2022-11-25T13:52:56;11.20;79.40
73360;DHT22;63092;43.582;19.528;2022-11-25T13:55:41;11.20;79.90
73360;DHT22;63092;43.582;19.528;2022-11-25T14:25:53;10.70;85.00
73360;DHT22;63092;43.582;19.528;2022-11-25T14:28:38;10.70;86.00
73360;DHT22;63092;43.582;19.528;2022-11-25T14:31:10;10.80;86.90
73360;DHT22;63092;43.582;19.528;2022-11-25T14:33:50;10.80;89.20
73360;DHT22;63092;43.582;19.528;2022-11-25T14:36:37;10.80;90.20
73360;DHT22;63092;43.582;19.528;2022-11-25T14:39:35;10.80;90.60
73360;DHT22;63092;43.582;19.528;2022-11-25T14:42:05;10.70;90.30
73360;DHT22;63092;43.582;19.528;2022-11-25T14:47:11;10.60;91.00
73360;DHT22;63092;43.582;19.528;2022-11-25T14:49:51;10.50;91.20
73360;DHT22;63092;43.582;19.528;2022-11-25T14:52:28;10.50;91.10
73360;DHT22;63092;43.582;19.528;2022-11-25T14:54:56;10.50;90.90
73360;DHT22;63092;43.582;19.528;2022-11-25T14:57:25;10.50;90.80
73360;DHT22;63092;43.582;19.528;2022-11-25T14:59:53;10.50;90.90
73360;DHT22;63092;43.582;19.528;2022-11-25T15:02:34;10.40;91.20
73360;DHT22;63092;43.582;19.528;2022-11-25T15:05:22;10.50;91.70
73360;DHT22;63092;43.582;19.528;2022-11-25T15:08:07;10.40;92.00
73360;DHT22;63092;43.582;19.528;2022-11-25T15:13:01;10.20;91.60
73360;DHT22;63092;43.582;19.528;2022-11-25T15:15:29;10.20;92.00
73360;DHT22;63092;43.582;19.528;2022-11-25T15:17:54;10.10;92.00
73360;DHT22;63092;43.582;19.528;2022-11-25T15:20:22;10.10;92.50
73360;DHT22;63092;43.582;19.528;2022-11-25T15:22:51;10.10;91.50
73360;DHT22;63092;43.582;19.528;2022-11-25T15:25:18;10.00;92.00
73360;DHT22;63092;43.582;19.528;2022-11-25T15:27:49;10.00;91.40
73360;DHT22;63092;43.582;19.528;2022-11-25T15:32:48;10.00;92.10
73360;DHT22;63092;43.582;19.528;2022-11-25T15:35:23;9.90;92.10
73360;DHT22;63092;43.582;19.528;2022-11-25T15:37:49;9.90;91.60
73360;DHT22;63092;43.582;19.528;2022-11-25T15:40:34;9.90;91.80
73360;DHT22;63092;43.582;19.528;2022-11-25T15:43:03;9.80;91.70
73360;DHT22;63092;43.582;19.528;2022-11-25T15:45:44;9.70;91.50
73360;DHT22;63092;43.582;19.528;2022-11-25T15:48:16;9.70;91.30
73360;DHT22;63092;43.582;19.528;2022-11-25T15:50:44;9.70;91.50
73360;DHT22;63092;43.582;19.528;2022-11-25T15:53:21;9.70;91.80
73360;DHT22;63092;43.582;19.528;2022-11-25T15:55:48;9.60;92.00
73360;DHT22;63092;43.582;19.528;2022-11-25T15:58:21;9.50;92.00
73360;DHT22;63092;43.582;19.528;2022-11-25T16:03:40;9.40;92.30
73360;DHT22;63092;43.582;19.528;2022-11-25T16:06:25;9.40;92.20
73360;DHT22;63092;43.582;19.528;2022-11-25T16:08:59;9.40;92.40
73360;DHT22;63092;43.582;19.528;2022-11-25T16:11:27;9.40;92.30
73360;DHT22;63092;43.582;19.528;2022-11-25T16:14:27;9.30;92.20
73360;DHT22;63092;43.582;19.528;2022-11-25T16:17:11;9.20;92.00
73360;DHT22;63092;43.582;19.528;2022-11-25T16:19:44;9.00;92.40
73360;DHT22;63092;43.582;19.528;2022-11-25T16:22:19;9.00;92.90
73360;DHT22;63092;43.582;19.528;2022-11-25T16:24:50;8.90;93.00
73360;DHT22;63092;43.582;19.528;2022-11-25T16:27:23;9.00;93.00
73360;DHT22;63092;43.582;19.528;2022-11-25T16:32:30;8.80;92.30
73360;DHT22;63092;43.582;19.528;2022-11-25T16:35:13;8.80;92.70
73360;DHT22;63092;43.582;19.528;2022-11-25T16:37:39;8.80;92.90
73360;DHT22;63092;43.582;19.528;2022-11-25T16:40:06;8.60;93.00
73360;DHT22;63092;43.582;19.528;2022-11-25T16:42:32;8.60;93.30
73360;DHT22;63092;43.582;19.528;2022-11-25T16:44:59;8.60;93.10
73360;DHT22;63092;43.582;19.528;2022-11-25T16:47:26;8.60;92.80
73360;DHT22;63092;43.582;19.528;2022-11-25T16:49:52;8.60;93.40
73360;DHT22;63092;43.582;19.528;2022-11-25T16:52:18;8.50;93.90
73360;DHT22;63092;43.582;19.528;2022-11-25T16:54:43;8.50;93.90
73360;DHT22;63092;43.582;19.528;2022-11-25T16:57:17;8.50;93.60
73360;DHT22;63092;43.582;19.528;2022-11-25T16:59:45;8.50;93.60
73360;DHT22;63092;43.582;19.528;2022-11-25T17:02:17;8.50;93.40
73360;DHT22;63092;43.582;19.528;2022-11-25T17:04:44;8.50;93.20
73360;DHT22;63092;43.582;19.528;2022-11-25T17:07:11;8.40;92.80
73360;DHT22;63092;43.582;19.528;2022-11-25T17:09:37;8.40;92.50
73360;DHT22;63092;43.582;19.528;2022-11-25T17:12:05;8.40;92.60
73360;DHT22;63092;43.582;19.528;2022-11-25T17:14:33;8.40;92.60
73360;DHT22;63092;43.582;19.528;2022-11-25T17:17:00;8.30;92.60
73360;DHT22;63092;43.582;19.528;2022-11-25T17:19:26;8.30;92.80
73360;DHT22;63092;43.582;19.528;2022-11-25T17:21:52;8.20;93.10
73360;DHT22;63092;43.582;19.528;2022-11-25T17:24:20;8.10;93.40
73360;DHT22;63092;43.582;19.528;2022-11-25T17:26:53;8.10;93.60
73360;DHT22;63092;43.582;19.528;2022-11-25T17:29:24;8.00;93.70
73360;DHT22;63092;43.582;19.528;2022-11-25T17:31:55;8.00;93.80
73360;DHT22;63092;43.582;19.528;2022-11-25T17:34:21;8.10;93.90
73360;DHT22;63092;43.582;19.528;2022-11-25T17:36:46;8.00;93.70
73360;DHT22;63092;43.582;19.528;2022-11-25T17:39:13;7.90;94.00
73360;DHT22;63092;43.582;19.528;2022-11-25T17:41:44;7.70;94.50
73360;DHT22;63092;43.582;19.528;2022-11-25T17:46:48;7.60;94.80
73360;DHT22;63092;43.582;19.528;2022-11-25T17:49:15;7.60;95.00
73360;DHT22;63092;43.582;19.528;2022-11-25T17:51:42;7.70;94.60
73360;DHT22;63092;43.582;19.528;2022-11-25T17:54:08;7.70;94.40
73360;DHT22;63092;43.582;19.528;2022-11-25T17:56:34;7.70;94.50
73360;DHT22;63092;43.582;19.528;2022-11-25T17:59:03;7.70;94.10
73360;DHT22;63092;43.582;19.528;2022-11-25T18:01:30;7.70;94.00
73360;DHT22;63092;43.582;19.528;2022-11-25T18:03:56;7.60;94.10
73360;DHT22;63092;43.582;19.528;2022-11-25T18:06:21;7.60;94.10
73360;DHT22;63092;43.582;19.528;2022-11-25T18:08:48;7.50;94.20